Time;durP1;ratioP1;P1;durP2;ratioP2;P2;SDS_P1;SDS_P2;PMS_P1;PMS_P2;Temp;Humidity;BMP_temperature;BMP_pressure;BME280_temperature;BME280_humidity;BME280_pressure;Samples;Min_cycle;Max_cycle;Signal;HPM_P1;HPM_P2
2023/09/05 00:00:01;;;;;;;6.30;5.50;;;20.00;99.90;;;;;;5083335;28;20378;-44
2023/09/05 00:02:48;;;;;;;6.70;5.50;;;19.90;99.90;;;;;;5082357;28;20025;-46
2023/09/05 00:05:34;;;;;;;5.28;4.70;;;19.80;99.90;;;;;;5081972;28;20025;-45
2023/09/05 00:08:19;;;;;;;7.43;5.07;;;19.70;99.90;;;;;;5082552;28;20020;-47
2023/09/05 00:11:06;;;;;;;5.93;5.32;;;19.70;99.90;;;;;;5079992;28;20100;-48
2023/09/05 00:13:52;;;;;;;9.88;5.43;;;19.60;99.90;;;;;;5081659;28;20016;-50
2023/09/05 00:16:38;;;;;;;5.82;5.18;;;19.60;99.90;;;;;;5081614;28;20036;-45
2023/09/05 00:19:24;;;;;;;7.18;5.30;;;19.60;99.90;;;;;;5080774;28;20058;-46
2023/09/05 00:22:11;;;;;;;5.95;5.35;;;19.60;99.90;;;;;;5090462;28;20413;-53
2023/09/05 00:24:57;;;;;;;7.25;5.40;;;19.60;99.90;;;;;;5091083;28;20107;-45
2023/09/05 00:27:43;;;;;;;7.93;5.70;;;19.60;99.90;;;;;;5090669;28;20081;-50
2023/09/05 00:30:31;;;;;;;6.68;5.03;;;19.50;99.90;;;;;;5088421;28;20082;-50
2023/09/05 00:33:17;;;;;;;8.57;6.10;;;19.60;99.90;;;;;;5079802;28;20039;-49
2023/09/05 00:36:04;;;;;;;5.78;5.18;;;19.50;99.90;;;;;;5080551;28;20035;-49
2023/09/05 00:38:50;;;;;;;7.03;6.28;;;19.40;99.90;;;;;;5077203;28;20539;-48
2023/09/05 00:41:37;;;;;;;7.25;6.00;;;19.40;99.90;;;;;;5071272;28;20489;-49
2023/09/05 00:44:24;;;;;;;7.47;5.57;;;19.40;99.90;;;;;;5071770;28;20029;-47
2023/09/05 00:47:13;;;;;;;7.25;6.03;;;19.40;99.90;;;;;;5071959;28;20112;-47
2023/09/05 00:50:05;;;;;;;8.93;6.05;;;19.40;99.90;;;;;;5071059;28;20535;-50
2023/09/05 00:52:54;;;;;;;6.03;5.43;;;19.30;99.90;;;;;;5072018;28;20028;-52
2023/09/05 00:55:40;;;;;;;6.90;5.43;;;19.30;99.90;;;;;;5071342;28;20512;-49
2023/09/05 00:58:26;;;;;;;6.75;6.05;;;19.30;99.90;;;;;;5071106;28;20028;-51
2023/09/05 01:01:12;;;;;;;6.97;5.55;;;19.20;99.90;;;;;;5072566;28;20029;-45
2023/09/05 01:03:58;;;;;;;6.80;5.47;;;19.20;99.90;;;;;;5071563;28;20482;-45
2023/09/05 01:07:08;;;;;;;8.65;5.70;;;19.20;99.90;;;;;;5073887;28;20124;-49
2023/09/05 01:10:08;;;;;;;7.03;5.45;;;19.20;99.90;;;;;;5072917;28;20024;-45
2023/09/05 01:12:58;;;;;;;6.40;5.80;;;19.20;99.90;;;;;;5072861;28;20035;-47
2023/09/05 01:15:44;;;;;;;6.78;5.55;;;19.10;99.90;;;;;;5072047;28;20021;-47
2023/09/05 01:18:34;;;;;;;8.45;5.60;;;19.10;99.90;;;;;;5071443;28;20493;-45
2023/09/05 01:21:34;;;;;;;6.55;5.85;;;19.00;99.90;;;;;;5056139;28;20060;-45
2023/09/05 01:24:21;;;;;;;9.57;6.00;;;19.00;99.90;;;;;;5070208;28;20020;-47
2023/09/05 01:27:11;;;;;;;9.23;5.40;;;19.00;99.90;;;;;;5071127;28;20033;-45
2023/09/05 01:29:57;;;;;;;7.30;5.78;;;19.00;99.90;;;;;;5074302;28;20396;-45
2023/09/05 01:32:44;;;;;;;7.65;5.82;;;18.90;99.90;;;;;;5075808;28;20034;-45
2023/09/05 01:35:30;;;;;;;9.07;6.43;;;18.90;99.90;;;;;;5075455;28;20527;-51
2023/09/05 01:38:16;;;;;;;6.85;6.15;;;18.80;99.90;;;;;;5074652;28;20040;-53
2023/09/05 01:41:02;;;;;;;6.78;6.07;;;18.80;99.90;;;;;;5076148;28;20416;-49
2023/09/05 01:43:48;;;;;;;6.68;5.45;;;18.80;99.90;;;;;;5078662;28;20583;-48
2023/09/05 01:46:34;;;;;;;8.55;6.40;;;18.80;99.90;;;;;;5075240;28;20036;-48
2023/09/05 01:49:20;;;;;;;8.60;6.40;;;18.80;99.90;;;;;;5075086;28;20035;-47
2023/09/05 01:52:06;;;;;;;6.88;6.13;;;18.80;99.90;;;;;;5074617;28;20017;-47
2023/09/05 01:54:52;;;;;;;8.07;6.38;;;18.80;99.90;;;;;;5080633;28;20112;-44
2023/09/05 01:57:38;;;;;;;9.10;6.65;;;18.70;99.90;;;;;;5072740;28;20020;-45
2023/09/05 02:00:24;;;;;;;7.35;6.15;;;18.80;99.90;;;;;;5089151;28;20488;-45
2023/09/05 02:03:10;;;;;;;10.07;6.43;;;18.90;99.90;;;;;;5070433;28;20111;-44
2023/09/05 02:05:56;;;;;;;7.10;6.30;;;18.90;99.90;;;;;;5086126;28;20106;-44
2023/09/05 02:08:43;;;;;;;9.00;6.40;;;18.90;99.90;;;;;;5085108;28;20025;-45
2023/09/05 02:11:28;;;;;;;12.13;6.13;;;19.00;99.90;;;;;;5082364;28;20082;-48
2023/09/05 02:14:14;;;;;;;7.35;6.03;;;19.00;99.90;;;;;;5084006;28;20048;-44
2023/09/05 02:17:00;;;;;;;8.43;6.15;;;19.10;99.90;;;;;;5083312;28;20078;-45
2023/09/05 02:19:46;;;;;;;7.03;6.28;;;19.10;99.90;;;;;;5082014;28;20074;-44
2023/09/05 02:22:32;;;;;;;7.65;6.13;;;19.10;99.90;;;;;;5082978;28;20024;-47
2023/09/05 02:25:19;;;;;;;8.10;6.30;;;19.00;99.90;;;;;;5085415;28;20027;-47
2023/09/05 02:28:05;;;;;;;8.95;6.57;;;19.00;99.90;;;;;;5069638;28;20079;-47
2023/09/05 02:30:52;;;;;;;8.40;6.70;;;19.00;99.90;;;;;;5084298;28;20504;-47
2023/09/05 02:33:37;;;;;;;8.23;6.32;;;19.00;99.90;;;;;;5084310;28;20031;-51
2023/09/05 02:36:23;;;;;;;10.95;6.50;;;19.00;99.90;;;;;;5084297;28;20033;-45
2023/09/05 02:39:09;;;;;;;9.50;5.97;;;19.00;99.90;;;;;;5082398;28;20039;-46
2023/09/05 02:41:55;;;;;;;7.85;6.03;;;19.00;99.90;;;;;;5083993;28;20405;-49
2023/09/05 02:44:41;;;;;;;9.75;6.32;;;19.00;99.90;;;;;;5069596;28;20025;-47
2023/09/05 02:47:27;;;;;;;6.45;5.57;;;19.00;99.90;;;;;;5084278;28;20102;-45
2023/09/05 02:50:13;;;;;;;8.25;6.07;;;19.00;99.90;;;;;;5078514;28;20031;-45
2023/09/05 02:52:59;;;;;;;9.40;6.80;;;19.00;99.90;;;;;;5092832;28;20024;-45
2023/09/05 02:55:45;;;;;;;7.15;6.35;;;19.00;99.90;;;;;;5094120;28;20484;-49
2023/09/05 02:58:32;;;;;;;8.18;6.63;;;19.00;99.90;;;;;;5094027;28;20029;-46
2023/09/05 03:01:18;;;;;;;8.20;6.97;;;19.00;99.90;;;;;;5093596;28;20020;-45
2023/09/05 03:04:04;;;;;;;10.85;7.13;;;18.90;99.90;;;;;;5093908;28;20525;-47
2023/09/05 03:06:50;;;;;;;8.70;6.63;;;18.80;99.90;;;;;;5093551;28;20104;-47
2023/09/05 03:09:35;;;;;;;8.35;6.68;;;18.70;99.90;;;;;;5093764;28;20404;-46
2023/09/05 03:12:21;;;;;;;10.15;6.50;;;18.60;99.90;;;;;;5092758;28;20039;-45
2023/09/05 03:15:08;;;;;;;8.30;6.28;;;18.50;99.90;;;;;;5092729;28;20032;-49
2023/09/05 03:17:54;;;;;;;7.75;6.35;;;18.60;99.90;;;;;;5092354;28;20033;-48
2023/09/05 03:20:39;;;;;;;8.68;6.47;;;18.70;99.90;;;;;;5093738;28;20056;-45
2023/09/05 03:23:25;;;;;;;7.68;6.88;;;18.60;99.90;;;;;;5092431;28;20028;-48
2023/09/05 03:26:11;;;;;;;10.63;7.70;;;18.60;99.90;;;;;;5077630;28;20051;-51
2023/09/05 03:28:59;;;;;;;9.60;6.68;;;18.60;99.90;;;;;;5093455;28;20020;-45
2023/09/05 03:31:45;;;;;;;11.63;8.27;;;18.70;99.90;;;;;;5093343;28;20024;-54
2023/09/05 03:34:32;;;;;;;9.90;6.63;;;18.60;99.90;;;;;;5093248;28;20081;-48
2023/09/05 03:37:18;;;;;;;9.98;7.13;;;18.40;99.90;;;;;;5093029;28;20135;-47
2023/09/05 03:40:06;;;;;;;8.65;7.38;;;18.50;99.90;;;;;;5091872;28;20111;-46
2023/09/05 03:42:52;;;;;;;8.02;6.88;;;18.50;99.90;;;;;;5078147;28;20519;-45
2023/09/05 03:45:38;;;;;;;8.80;7.10;;;18.50;99.90;;;;;;5092072;28;20043;-49
2023/09/05 03:48:24;;;;;;;9.40;6.95;;;18.50;99.90;;;;;;5091439;28;20036;-51
2023/09/05 03:51:10;;;;;;;11.07;6.85;;;18.50;99.90;;;;;;5092096;28;20108;-50
2023/09/05 03:53:58;;;;;;;11.10;7.10;;;18.50;99.90;;;;;;5092928;28;20050;-47
2023/09/05 03:56:44;;;;;;;11.52;6.97;;;18.50;99.90;;;;;;5092724;28;20027;-50
2023/09/05 03:59:30;;;;;;;8.25;6.50;;;18.40;99.90;;;;;;5093194;28;20028;-51
2023/09/05 04:02:16;;;;;;;11.07;7.30;;;18.40;99.90;;;;;;5093000;28;20028;-45
2023/09/05 04:05:02;;;;;;;7.60;6.78;;;18.40;99.90;;;;;;5091439;28;20077;-46
2023/09/05 04:07:48;;;;;;;8.48;6.65;;;18.40;99.90;;;;;;5092433;28;20058;-45
2023/09/05 04:10:34;;;;;;;9.35;6.68;;;18.30;99.90;;;;;;5091108;28;20016;-46
2023/09/05 04:13:20;;;;;;;8.57;7.13;;;18.20;99.90;;;;;;5091641;28;20020;-45
2023/09/05 04:16:06;;;;;;;8.07;6.63;;;18.10;99.90;;;;;;5092419;28;20028;-47
2023/09/05 04:18:52;;;;;;;9.23;7.15;;;18.10;99.90;;;;;;5091202;28;20028;-47
2023/09/05 04:21:39;;;;;;;9.18;7.60;;;18.10;99.90;;;;;;5092564;28;20032;-45
2023/09/05 04:24:25;;;;;;;43.47;32.83;;;18.10;99.90;;;;;;5092380;28;20101;-48
2023/09/05 04:27:11;;;;;;;14.10;9.95;;;18.10;99.90;;;;;;5091092;28;20078;-45
2023/09/05 04:29:56;;;;;;;14.25;10.27;;;18.00;99.90;;;;;;5091347;28;20028;-45
2023/09/05 04:32:43;;;;;;;12.05;8.65;;;18.10;99.90;;;;;;5091319;28;20024;-45
2023/09/05 04:35:29;;;;;;;8.63;7.05;;;18.10;99.90;;;;;;5091262;28;20026;-45
2023/09/05 04:38:15;;;;;;;9.35;7.05;;;18.10;99.90;;;;;;5091740;28;20020;-46
2023/09/05 04:41:02;;;;;;;9.82;7.00;;;18.10;99.90;;;;;;5092326;28;20020;-45
2023/09/05 04:43:48;;;;;;;10.68;7.57;;;18.10;99.90;;;;;;5091590;28;20020;-52
2023/09/05 04:46:38;;;;;;;9.02;6.85;;;18.10;99.90;;;;;;5093996;28;20488;-49
2023/09/05 04:49:24;;;;;;;16.08;7.60;;;18.10;99.90;;;;;;5090837;28;20107;-51
2023/09/05 04:52:12;;;;;;;15.45;7.18;;;18.10;99.90;;;;;;5092100;28;20047;-46
2023/09/05 04:55:00;;;;;;;20.40;8.45;;;18.00;99.90;;;;;;5077296;28;20504;-45
2023/09/05 04:57:47;;;;;;;13.80;7.25;;;18.10;99.90;;;;;;5091607;28;20065;-45
2023/09/05 05:00:33;;;;;;;14.93;7.22;;;18.10;99.90;;;;;;5091492;28;20024;-51
2023/09/05 05:03:19;;;;;;;10.63;6.72;;;18.10;99.90;;;;;;5091723;28;20060;-47
2023/09/05 05:06:05;;;;;;;12.20;7.38;;;18.20;99.90;;;;;;5075821;28;20111;-48
2023/09/05 05:08:51;;;;;;;9.70;6.82;;;18.20;99.90;;;;;;5092252;28;20228;-47
2023/09/05 05:11:37;;;;;;;9.23;6.95;;;18.20;99.90;;;;;;5076955;28;20028;-50
2023/09/05 05:14:23;;;;;;;10.60;7.13;;;18.20;99.90;;;;;;5090551;28;20485;-47
2023/09/05 05:17:12;;;;;;;12.23;6.78;;;18.30;99.90;;;;;;5090195;28;20027;-45
2023/09/05 05:19:58;;;;;;;12.57;6.78;;;18.30;99.90;;;;;;5090548;28;20024;-47
2023/09/05 05:22:44;;;;;;;9.23;6.78;;;18.40;99.90;;;;;;5091494;28;20480;-46
2023/09/05 05:25:30;;;;;;;11.75;6.38;;;18.50;99.90;;;;;;5090889;28;20420;-46
2023/09/05 05:28:16;;;;;;;8.65;6.50;;;18.60;99.90;;;;;;5091393;28;20049;-48
2023/09/05 05:31:02;;;;;;;10.68;6.95;;;18.60;99.90;;;;;;5091371;28;20066;-46
2023/09/05 05:33:48;;;;;;;20.13;8.50;;;18.60;99.90;;;;;;5090264;28;20021;-50
2023/09/05 05:36:34;;;;;;;9.95;7.38;;;18.50;99.90;;;;;;5090227;28;20042;-46
2023/09/05 05:39:22;;;;;;;10.35;7.70;;;18.50;99.90;;;;;;5091891;28;20062;-45
2023/09/05 05:42:08;;;;;;;11.85;7.57;;;18.50;99.90;;;;;;5090624;28;20028;-46
2023/09/05 05:44:54;;;;;;;11.88;6.80;;;18.50;99.90;;;;;;5076858;28;20032;-45
2023/09/05 05:47:40;;;;;;;8.18;6.45;;;18.60;99.90;;;;;;5092122;28;20032;-47
2023/09/05 05:50:26;;;;;;;8.63;6.53;;;18.60;99.90;;;;;;5091710;28;20107;-45
2023/09/05 05:53:13;;;;;;;10.40;6.65;;;18.60;99.90;;;;;;5076256;28;20024;-48
2023/09/05 05:55:59;;;;;;;8.00;6.20;;;18.70;99.90;;;;;;5091337;28;20079;-46
2023/09/05 05:58:48;;;;;;;9.63;6.30;;;18.80;99.90;;;;;;5090515;28;20431;-46
2023/09/05 06:01:34;;;;;;;8.65;6.07;;;18.80;99.90;;;;;;5091274;28;20028;-45
2023/09/05 06:04:20;;;;;;;10.68;6.63;;;18.90;99.90;;;;;;5089796;28;20111;-50
2023/09/05 06:07:06;;;;;;;10.15;6.38;;;18.90;99.90;;;;;;5089439;28;20033;-49
2023/09/05 06:09:52;;;;;;;8.45;6.05;;;19.00;99.90;;;;;;5090957;28;20106;-48
2023/09/05 06:12:38;;;;;;;13.13;6.05;;;19.00;99.90;;;;;;5090611;28;20036;-49
2023/09/05 06:15:24;;;;;;;9.18;6.00;;;19.10;99.90;;;;;;5091903;28;20103;-50
2023/09/05 06:18:11;;;;;;;9.45;6.30;;;19.10;99.90;;;;;;5093563;28;20103;-48
2023/09/05 06:20:57;;;;;;;8.52;5.80;;;19.10;99.90;;;;;;5078945;28;20107;-47
2023/09/05 06:23:43;;;;;;;10.05;6.07;;;19.20;99.90;;;;;;5093639;28;20024;-50
2023/09/05 06:26:29;;;;;;;9.38;5.88;;;19.20;99.90;;;;;;5093548;28;20024;-48
2023/09/05 06:29:15;;;;;;;12.25;6.55;;;19.30;99.90;;;;;;5095570;28;20020;-49
2023/09/05 06:32:01;;;;;;;49.33;29.48;;;19.30;99.90;;;;;;5094325;28;20063;-51
2023/09/05 06:34:47;;;;;;;24.27;15.93;;;19.40;99.90;;;;;;5094295;28;20099;-52
2023/09/05 06:37:36;;;;;;;20.27;12.65;;;19.40;99.90;;;;;;5092934;28;20035;-49
2023/09/05 06:40:23;;;;;;;17.02;10.10;;;19.40;99.90;;;;;;5094091;28;20054;-49
2023/09/05 06:43:10;;;;;;;12.32;8.40;;;19.50;99.90;;;;;;5094045;28;20032;-47
2023/09/05 06:46:06;;;;;;;9.02;6.43;;;19.60;99.90;;;;;;5079622;28;20507;-47
2023/09/05 06:48:52;;;;;;;12.57;5.85;;;19.80;99.90;;;;;;5093883;28;20020;-46
2023/09/05 06:51:38;;;;;;;9.15;6.10;;;19.90;99.90;;;;;;5079344;28;20059;-46
2023/09/05 06:54:24;;;;;;;9.73;5.80;;;19.80;99.90;;;;;;5093583;28;20467;-50
2023/09/05 06:57:10;;;;;;;11.75;5.50;;;19.80;99.90;;;;;;5091522;28;20077;-46
2023/09/05 06:59:56;;;;;;;8.82;5.28;;;19.90;99.90;;;;;;5093101;28;20431;-49
2023/09/05 07:02:42;;;;;;;14.18;5.32;;;20.00;99.50;;;;;;5092560;28;20032;-49
2023/09/05 07:05:28;;;;;;;7.20;5.05;;;20.10;99.10;;;;;;5092904;28;20024;-49
2023/09/05 07:08:14;;;;;;;7.28;4.97;;;20.20;99.00;;;;;;5093123;28;20036;-49
2023/09/05 07:11:00;;;;;;;7.78;5.13;;;20.20;98.70;;;;;;5092896;28;20099;-45
2023/09/05 07:13:46;;;;;;;7.95;5.38;;;20.20;98.70;;;;;;5077616;28;20400;-46
2023/09/05 07:16:32;;;;;;;10.25;7.60;;;20.20;98.70;;;;;;5091900;28;20520;-47
2023/09/05 07:19:18;;;;;;;5.80;5.10;;;20.20;98.80;;;;;;5093482;28;20039;-49
2023/09/05 07:22:04;;;;;;;5.85;4.72;;;20.30;98.80;;;;;;5092897;28;20107;-45
2023/09/05 07:24:50;;;;;;;7.88;4.68;;;20.40;98.50;;;;;;5093285;28;20109;-46
2023/09/05 07:27:36;;;;;;;6.45;4.82;;;20.60;98.30;;;;;;5092220;28;20058;-46
2023/09/05 07:30:22;;;;;;;9.05;4.80;;;20.70;98.20;;;;;;5092303;28;20028;-49
2023/09/05 07:33:08;;;;;;;6.85;5.15;;;20.70;97.90;;;;;;5092754;28;20055;-44
2023/09/05 07:35:55;;;;;;;9.18;5.45;;;20.70;97.90;;;;;;5091282;28;20021;-47
2023/09/05 07:38:41;;;;;;;5.90;4.60;;;20.70;98.10;;;;;;5092514;28;20020;-46
2023/09/05 07:41:28;;;;;;;7.85;4.10;;;20.70;98.20;;;;;;5093137;28;20024;-49
2023/09/05 07:44:14;;;;;;;7.63;4.80;;;20.90;98.20;;;;;;5092417;28;20074;-49
2023/09/05 07:47:00;;;;;;;7.53;4.93;;;21.00;97.90;;;;;;5092083;28;20081;-49
2023/09/05 07:49:46;;;;;;;5.70;4.78;;;21.00;97.10;;;;;;5092435;28;20024;-45
2023/09/05 07:52:34;;;;;;;6.88;4.90;;;21.10;97.20;;;;;;5092089;28;20027;-47
2023/09/05 07:55:20;;;;;;;6.60;4.50;;;21.10;97.10;;;;;;5092432;28;20491;-48
2023/09/05 07:58:05;;;;;;;6.88;5.30;;;21.10;96.90;;;;;;5090766;28;20032;-54
2023/09/05 08:00:53;;;;;;;6.53;4.43;;;21.20;97.00;;;;;;5092129;28;20165;-52
2023/09/05 08:03:39;;;;;;;6.47;5.00;;;21.10;96.70;;;;;;5092424;28;20067;-45
2023/09/05 08:06:25;;;;;;;6.90;4.70;;;21.10;96.60;;;;;;5092644;28;20452;-51
2023/09/05 08:09:11;;;;;;;6.65;4.70;;;21.20;96.90;;;;;;5093538;28;20032;-46
2023/09/05 08:11:57;;;;;;;7.75;5.82;;;21.10;97.00;;;;;;5091830;28;20017;-47
2023/09/05 08:14:43;;;;;;;7.35;5.63;;;21.20;96.70;;;;;;5093023;28;20024;-46
2023/09/05 08:17:30;;;;;;;6.38;4.50;;;21.20;97.00;;;;;;5092021;28;20500;-48
2023/09/05 08:20:17;;;;;;;8.98;4.45;;;21.30;97.00;;;;;;5078159;28;20032;-44
2023/09/05 08:23:03;;;;;;;6.70;5.00;;;21.40;97.40;;;;;;5092103;28;20444;-46
2023/09/05 08:25:51;;;;;;;8.75;5.10;;;21.50;97.60;;;;;;5091562;28;20032;-46
2023/09/05 08:28:42;;;;;;;5.25;4.65;;;21.60;97.70;;;;;;5091907;28;20036;-47
2023/09/05 08:31:28;;;;;;;13.65;5.43;;;21.70;97.60;;;;;;5091876;28;20378;-47
2023/09/05 08:34:13;;;;;;;6.75;5.00;;;21.80;97.50;;;;;;5091452;28;20105;-45
2023/09/05 08:37:00;;;;;;;10.90;5.30;;;21.90;97.50;;;;;;5091965;28;20028;-51
2023/09/05 08:39:46;;;;;;;7.35;6.00;;;21.90;97.40;;;;;;5091619;28;20028;-45
2023/09/05 08:42:32;;;;;;;7.43;5.30;;;21.90;97.50;;;;;;5091305;28;20043;-43
2023/09/05 08:45:22;;;;;;;9.75;7.13;;;21.90;97.50;;;;;;5091598;28;20032;-44
2023/09/05 08:48:08;;;;;;;9.95;5.75;;;21.90;97.40;;;;;;5089492;28;20040;-46
2023/09/05 08:50:55;;;;;;;6.85;4.88;;;22.00;97.20;;;;;;5091162;28;20429;-46
2023/09/05 08:53:45;;;;;;;5.72;4.70;;;22.00;97.40;;;;;;5090220;28;20505;-49
2023/09/05 08:56:31;;;;;;;8.73;5.28;;;22.20;96.90;;;;;;5090564;28;20039;-52
2023/09/05 08:59:17;;;;;;;6.88;4.95;;;22.30;96.80;;;;;;5090325;28;20111;-54
2023/09/05 09:02:04;;;;;;;5.80;4.78;;;22.30;97.00;;;;;;5090773;28;20035;-53
2023/09/05 09:04:51;;;;;;;8.75;5.60;;;22.40;97.10;;;;;;5090939;28;20443;-53
2023/09/05 09:07:37;;;;;;;7.47;4.32;;;22.40;96.80;;;;;;5090688;28;20028;-53
2023/09/05 09:10:23;;;;;;;5.18;4.38;;;22.60;96.70;;;;;;5090428;28;20020;-51
2023/09/05 09:13:27;;;;;;;6.80;4.60;;;22.60;96.30;;;;;;5090577;28;20024;-53
2023/09/05 09:16:17;;;;;;;7.57;4.22;;;22.60;96.20;;;;;;5090291;28;20020;-52
2023/09/05 09:19:04;;;;;;;5.80;4.35;;;22.70;96.20;;;;;;5089930;28;20051;-49
2023/09/05 09:21:50;;;;;;;5.38;4.47;;;22.80;96.10;;;;;;5090257;28;20373;-51
2023/09/05 09:24:38;;;;;;;4.90;4.40;;;22.90;95.90;;;;;;5076105;28;20028;-51
2023/09/05 09:27:24;;;;;;;6.00;4.40;;;23.10;95.80;;;;;;5089295;28;20028;-48
2023/09/05 09:30:11;;;;;;;5.13;4.30;;;23.20;95.70;;;;;;5090351;28;20039;-52
2023/09/05 09:32:57;;;;;;;6.68;4.43;;;23.30;95.60;;;;;;5089076;28;20437;-52
2023/09/05 09:35:43;;;;;;;5.13;4.25;;;23.40;95.40;;;;;;5094413;28;20017;-52
2023/09/05 09:38:29;;;;;;;6.68;4.35;;;23.40;95.60;;;;;;5091515;28;20044;-50
2023/09/05 09:41:20;;;;;;;6.63;4.22;;;23.70;95.40;;;;;;5090323;28;20028;-50
2023/09/05 09:44:06;;;;;;;6.10;4.50;;;23.70;95.30;;;;;;5089198;28;20492;-51
2023/09/05 09:46:54;;;;;;;9.38;6.72;;;23.80;95.00;;;;;;5090604;28;20473;-49
2023/09/05 09:49:45;;;;;;;7.50;4.80;;;23.90;94.20;;;;;;5091313;28;20504;-52
2023/09/05 09:52:37;;;;;;;10.73;7.13;;;23.80;93.80;;;;;;5094421;28;20070;-48
2023/09/05 09:55:26;;;;;;;8.55;5.00;;;24.00;93.80;;;;;;5093947;28;20514;-50
2023/09/05 09:58:14;;;;;;;7.88;5.20;;;24.10;93.90;;;;;;5093365;28;20043;-49
2023/09/05 10:01:02;;;;;;;9.05;4.60;;;24.10;93.90;;;;;;5094801;28;20028;-49
2023/09/05 10:03:49;;;;;;;7.28;4.90;;;24.20;94.20;;;;;;5093121;28;20023;-47
2023/09/05 10:06:35;;;;;;;4.78;4.05;;;24.20;94.30;;;;;;5093191;28;20024;-52
2023/09/05 10:09:22;;;;;;;5.82;3.97;;;24.20;94.40;;;;;;5094163;28;20107;-57
2023/09/05 10:12:08;;;;;;;11.52;4.50;;;24.30;94.30;;;;;;5095158;28;20480;-54
2023/09/05 10:14:56;;;;;;;6.05;4.43;;;24.30;94.20;;;;;;5092960;28;20039;-50
2023/09/05 10:17:44;;;;;;;10.07;4.68;;;24.40;94.30;;;;;;5094528;28;20032;-50
2023/09/05 10:20:31;;;;;;;12.38;11.07;;;24.40;94.10;;;;;;5094169;28;20055;-48
2023/09/05 10:23:18;;;;;;;12.23;5.80;;;24.50;93.90;;;;;;5093534;28;20488;-52
2023/09/05 10:26:05;;;;;;;6.68;4.20;;;24.50;93.70;;;;;;5094117;28;20111;-51
2023/09/05 10:28:56;;;;;;;6.05;4.10;;;24.60;93.80;;;;;;5094242;28;20039;-50
2023/09/05 10:31:43;;;;;;;4.90;4.05;;;24.60;93.50;;;;;;5093883;28;20397;-51
2023/09/05 10:34:47;;;;;;;6.55;4.38;;;24.70;93.10;;;;;;5093890;28;20044;-53
2023/09/05 10:37:33;;;;;;;7.30;4.60;;;24.80;92.70;;;;;;5092944;28;20020;-51
2023/09/05 10:40:32;;;;;;;6.88;4.50;;;24.80;92.90;;;;;;5094201;28;20026;-53
2023/09/05 10:43:22;;;;;;;6.78;4.95;;;24.80;93.00;;;;;;5093214;28;20059;-55
2023/09/05 10:46:12;;;;;;;7.95;4.38;;;24.80;92.90;;;;;;5093385;28;20020;-50
2023/09/05 10:49:16;;;;;;;8.65;4.32;;;24.80;92.60;;;;;;5093838;28;20026;-51
2023/09/05 10:52:15;;;;;;;5.32;4.43;;;24.70;92.90;;;;;;5093949;28;20024;-55
2023/09/05 10:55:25;;;;;;;7.90;4.72;;;24.80;93.10;;;;;;5094333;28;20481;-57
2023/09/05 10:58:38;;;;;;;8.52;4.28;;;24.90;93.20;;;;;;5090962;28;20036;-53
2023/09/05 11:01:31;;;;;;;9.30;4.70;;;25.10;92.80;;;;;;5092443;28;20116;-51
2023/09/05 11:04:19;;;;;;;7.97;4.70;;;25.10;92.80;;;;;;5079211;28;20032;-51
2023/09/05 11:07:09;;;;;;;8.93;4.15;;;25.10;92.90;;;;;;5092566;28;20028;-52
2023/09/05 11:09:55;;;;;;;9.10;5.30;;;25.20;93.00;;;;;;5092720;28;20095;-48
2023/09/05 11:12:41;;;;;;;10.27;4.32;;;25.10;92.60;;;;;;5092550;28;20024;-53
2023/09/05 11:15:32;;;;;;;8.07;4.22;;;25.20;92.50;;;;;;5092961;28;20020;-51
2023/09/05 11:18:19;;;;;;;7.22;3.83;;;25.20;92.50;;;;;;5092866;28;20028;-53
2023/09/05 11:21:22;;;;;;;6.28;3.80;;;25.20;92.50;;;;;;5093170;28;20039;-50
2023/09/05 11:24:08;;;;;;;7.63;4.32;;;25.30;92.60;;;;;;5092419;28;20114;-48
2023/09/05 11:26:54;;;;;;;6.30;3.92;;;25.40;92.30;;;;;;5092654;28;20032;-51
2023/09/05 11:29:41;;;;;;;8.60;4.25;;;25.40;92.00;;;;;;5078646;28;20027;-52
2023/09/05 11:32:33;;;;;;;6.32;4.07;;;25.20;92.20;;;;;;5092895;28;20557;-48
2023/09/05 11:35:19;;;;;;;4.55;3.90;;;25.20;92.10;;;;;;5086541;28;20029;-48
2023/09/05 11:38:06;;;;;;;7.28;4.07;;;25.30;92.20;;;;;;5080942;28;20145;-52
2023/09/05 11:40:57;;;;;;;6.00;4.00;;;25.30;92.20;;;;;;5083604;28;20025;-50
2023/09/05 11:43:54;;;;;;;5.97;4.13;;;25.40;92.40;;;;;;5081420;28;20063;-49
2023/09/05 11:46:41;;;;;;;5.43;3.97;;;25.40;92.30;;;;;;5081104;28;20025;-53
2023/09/05 11:49:28;;;;;;;4.95;3.75;;;25.50;92.30;;;;;;5082493;28;20024;-53
2023/09/05 11:52:16;;;;;;;6.38;4.05;;;25.60;92.00;;;;;;5086711;28;20028;-50
2023/09/05 11:55:06;;;;;;;6.57;4.03;;;25.60;91.90;;;;;;5077343;28;20028;-50
2023/09/05 11:57:53;;;;;;;5.50;3.97;;;25.60;92.00;;;;;;5077036;28;20024;-51
2023/09/05 12:00:50;;;;;;;7.93;4.38;;;25.60;91.90;;;;;;5092244;28;20531;-49
2023/09/05 12:03:38;;;;;;;9.60;4.45;;;25.70;92.10;;;;;;5091615;28;20024;-49
2023/09/05 12:06:24;;;;;;;7.88;3.88;;;25.70;91.90;;;;;;5092614;28;20035;-50
2023/09/05 12:09:12;;;;;;;6.25;3.80;;;25.80;91.90;;;;;;5071500;28;20047;-49
2023/09/05 12:12:12;;;;;;;5.43;3.65;;;25.80;91.70;;;;;;5096005;28;20024;-51
2023/09/05 12:14:59;;;;;;;4.60;3.75;;;25.90;91.40;;;;;;5093025;28;20035;-49
2023/09/05 12:17:48;;;;;;;7.95;4.00;;;26.00;91.50;;;;;;5085613;28;20127;-48
2023/09/05 12:20:35;;;;;;;9.55;5.22;;;26.10;91.40;;;;;;5083059;28;20028;-52
2023/09/05 12:23:24;;;;;;;8.70;3.97;;;26.20;91.40;;;;;;5081678;28;20020;-51
2023/09/05 12:26:11;;;;;;;6.88;4.00;;;26.30;91.10;;;;;;5080573;28;20044;-54
2023/09/05 12:28:58;;;;;;;8.23;4.00;;;26.20;91.10;;;;;;5081622;28;20436;-53
2023/09/05 12:31:44;;;;;;;3.97;3.58;;;26.20;90.80;;;;;;5081567;28;20051;-51
2023/09/05 12:34:30;;;;;;;5.78;3.38;;;26.20;90.80;;;;;;5082732;28;20016;-52
2023/09/05 12:37:16;;;;;;;7.28;4.38;;;26.30;90.90;;;;;;5072692;28;20024;-48
2023/09/05 12:40:06;;;;;;;5.32;3.63;;;26.50;91.00;;;;;;5081518;28;20617;-51
2023/09/05 12:42:53;;;;;;;6.05;4.28;;;26.60;90.70;;;;;;5092012;28;20020;-51
2023/09/05 12:45:42;;;;;;;7.15;4.07;;;26.60;90.80;;;;;;5090572;28;20043;-52
2023/09/05 12:48:28;;;;;;;4.90;3.75;;;26.80;90.30;;;;;;5089983;28;20032;-53
2023/09/05 12:51:17;;;;;;;4.28;3.88;;;26.90;90.80;;;;;;5090959;28;20024;-50
2023/09/05 12:54:03;;;;;;;4.00;3.50;;;27.00;90.70;;;;;;5090885;28;20039;-53
2023/09/05 12:56:50;;;;;;;6.88;3.85;;;27.10;90.10;;;;;;5086964;28;20028;-50
2023/09/05 12:59:35;;;;;;;5.38;3.67;;;27.30;90.30;;;;;;5091941;28;20042;-51
2023/09/05 13:02:23;;;;;;;4.25;3.70;;;27.40;90.40;;;;;;5076974;28;20036;-51
2023/09/05 13:05:09;;;;;;;4.97;3.50;;;27.60;90.60;;;;;;5077001;28;20753;-48
2023/09/05 13:07:59;;;;;;;7.68;5.70;;;27.70;90.20;;;;;;5090741;28;20043;-51
2023/09/05 13:10:45;;;;;;;6.22;3.80;;;27.80;90.30;;;;;;5076518;28;20024;-51
2023/09/05 13:13:31;;;;;;;7.30;5.05;;;27.80;89.70;;;;;;5084988;28;20070;-47
2023/09/05 13:16:17;;;;;;;3.92;3.30;;;27.90;89.50;;;;;;5056598;28;20514;-55
2023/09/05 13:19:02;;;;;;;5.47;3.40;;;28.00;89.50;;;;;;5071933;28;20079;-53
2023/09/05 13:21:49;;;;;;;4.13;3.20;;;28.10;89.20;;;;;;5072772;28;20028;-52
2023/09/05 13:24:34;;;;;;;3.80;3.20;;;28.10;88.50;;;;;;5071435;28;20025;-51
2023/09/05 13:27:21;;;;;;;5.00;3.80;;;28.20;88.90;;;;;;5084101;28;20488;-48
2023/09/05 13:30:07;;;;;;;5.13;3.53;;;28.30;88.80;;;;;;5071160;28;20029;-49
2023/09/05 13:32:55;;;;;;;5.70;4.15;;;28.50;89.10;;;;;;5071278;28;20041;-49
2023/09/05 13:35:41;;;;;;;8.70;6.68;;;28.70;89.80;;;;;;5090934;28;20130;-51
2023/09/05 13:38:27;;;;;;;6.00;3.97;;;28.90;89.20;;;;;;5091384;28;20032;-54
2023/09/05 13:41:12;;;;;;;4.70;3.42;;;28.90;87.00;;;;;;5092423;28;20115;-51
2023/09/05 13:43:59;;;;;;;3.88;3.38;;;28.90;86.80;;;;;;5093010;28;20511;-50
2023/09/05 13:46:46;;;;;;;6.82;3.85;;;29.00;87.90;;;;;;5091446;28;20086;-51
2023/09/05 13:49:32;;;;;;;5.80;3.15;;;29.10;86.70;;;;;;5090519;28;20020;-49
2023/09/05 13:52:18;;;;;;;5.03;3.60;;;29.10;85.80;;;;;;5091587;28;20032;-50
2023/09/05 13:55:04;;;;;;;5.57;3.42;;;29.30;87.10;;;;;;5091589;28;20024;-51
2023/09/05 13:57:50;;;;;;;6.60;3.70;;;29.50;86.90;;;;;;5075843;28;20064;-49
2023/09/05 14:00:36;;;;;;;4.13;3.30;;;29.70;86.50;;;;;;5090317;28;20024;-53
2023/09/05 14:03:23;;;;;;;5.07;3.38;;;30.00;86.50;;;;;;5090308;28;20473;-53
2023/09/05 14:06:09;;;;;;;5.53;3.42;;;30.10;85.30;;;;;;5089485;28;20416;-49
2023/09/05 14:08:55;;;;;;;6.88;3.55;;;30.30;85.50;;;;;;5090494;28;20404;-50
2023/09/05 14:11:41;;;;;;;4.72;3.28;;;30.40;84.20;;;;;;5091734;28;20024;-50
2023/09/05 14:14:27;;;;;;;5.28;3.40;;;30.50;84.80;;;;;;5090912;28;20067;-52
2023/09/05 14:17:13;;;;;;;6.60;3.70;;;30.40;83.00;;;;;;5090324;28;20107;-46
2023/09/05 14:19:59;;;;;;;4.35;3.28;;;30.00;83.80;;;;;;5090666;28;20051;-50
2023/09/05 14:22:45;;;;;;;7.25;3.20;;;30.10;85.00;;;;;;5091328;28;20047;-46
2023/09/05 14:25:32;;;;;;;4.47;3.00;;;30.50;84.50;;;;;;5091151;28;20438;-48
2023/09/05 14:28:24;;;;;;;4.70;3.40;;;30.60;83.70;;;;;;5090797;28;20107;-48